Weather History for Grove, OK

Change the Weather History Date:

Sunday, March 24, 2013

  Actual Average (KSLG) Record (KSLG)
Temperature  
Mean Temperature 37 °F -  
Max Temperature 42 °F 57 °F 77 °F (2007)
Min Temperature 32 °F 39 °F 24 °F (2006)
Degree Days  
Heating Degree Days 28    
Moisture  
Dew Point 32 °F    
Average Humidity 91    
Maximum Humidity 100    
Minimum Humidity 69    
Precipitation  
Precipitation 0.00 in - - ()
Sea Level Pressure  
Sea Level Pressure 29.93 in    
Wind  
Wind Speed 10 mph (NW)    
Max Wind Speed 24 mph    
Max Gust Speed 33 mph    
Visibility 7 miles    
Events Rain , Snow    
Averages and records for this station are not official NWS values.
T = Trace of Precipitation, MM = Missing Value Source: NWS Daily Summary

Daily Weather History Graph

Daily Weather History Graph

Search for Another Location

Airport:

Trip Planner

Search our weather history database for the weather conditions in past years. The results will help you decide how hot, cold, wet, or windy it might be!

Date:

Astronomy

Mar. 24, 2013 Rise Set
Actual Time 7:16 AM CDT 7:34 PM CDT
Civil Twilight 6:50 AM CDT 8:00 PM CDT
Nautical Twilight 6:20 AM CDT 8:30 PM CDT
Astronomical Twilight 5:49 AM CDT 9:01 PM CDT
Moon 5:06 PM CDT (3/24) 5:23 AM CDT (3/24)
Length of Visible Light 13h 09m
Length of Day
12h 18m
Waxing Gibbous, 92% of the Moon is Illuminated
Mar 24
Waxing Gibbous
Mar 27
Full
Apr 2
Last Quarter
Apr 10
New
Apr 18
First Quarter

Hourly Weather History & Observations

Time (CDT) Temp. Windchill Dew Point Humidity Pressure Visibility Wind Dir Wind Speed Gust Speed Precip Events Conditions
12:15 AM 42.8 °F - 42.8 °F 100% 29.77 in 2.5 mi Calm Calm - N/A   Light Drizzle
12:35 AM 41.0 °F - 41.0 °F 100% 29.76 in 4.0 mi Calm Calm - N/A   Light Drizzle
12:55 AM 41.0 °F 36.4 °F 41.0 °F 100% 29.79 in 2.5 mi North 6.9 mph - N/A   Drizzle
1:15 AM 39.2 °F 35.0 °F 39.2 °F 100% 29.76 in 3.0 mi NNE 5.8 mph - N/A   Drizzle
1:35 AM 39.2 °F 37.0 °F 39.2 °F 100% 29.75 in 4.0 mi North 3.5 mph - N/A   Light Drizzle
1:55 AM 39.2 °F - 39.2 °F 100% 29.74 in 5.0 mi Calm Calm - N/A   Overcast
2:35 AM 39.2 °F - 39.2 °F 100% 29.71 in 5.0 mi Calm Calm - N/A   Light Drizzle
2:55 AM 39.2 °F - 39.2 °F 100% 29.72 in 7.0 mi Calm Calm - N/A   Overcast
3:15 AM 39.2 °F 37.0 °F 39.2 °F 100% 29.71 in 4.0 mi West 3.5 mph - N/A   Drizzle
3:35 AM 39.2 °F 35.9 °F 39.2 °F 100% 29.71 in 4.0 mi West 4.6 mph - N/A   Drizzle
3:55 AM 37.4 °F 31.4 °F 37.4 °F 100% 29.71 in 3.0 mi West 8.1 mph - N/A   Light Drizzle
4:15 AM 37.4 °F 30.3 °F 37.4 °F 100% 29.71 in 3.0 mi West 10.4 mph 17.3 mph N/A   Drizzle
4:35 AM 35.6 °F 27.5 °F 35.6 °F 100% 29.71 in 2.5 mi WNW 11.5 mph 17.3 mph N/A Rain Light Rain
4:55 AM 35.6 °F 29.9 °F 35.6 °F 100% 29.71 in 5.0 mi WNW 6.9 mph - N/A Rain Light Rain
5:15 AM 33.8 °F 27.0 °F 33.8 °F 100% 29.71 in 4.0 mi West 8.1 mph - N/A Snow Light Snow
5:35 AM 33.8 °F 27.7 °F 33.8 °F 100% 29.71 in 2.0 mi WNW 6.9 mph - N/A Snow Light Snow
5:55 AM 33.8 °F 27.0 °F 33.8 °F 100% 29.72 in 2.5 mi WNW 8.1 mph - N/A Snow Light Snow
6:15 AM 33.8 °F 26.4 °F 33.8 °F 100% 29.73 in 2.5 mi WNW 9.2 mph - N/A Snow Light Snow
6:35 AM 33.8 °F 23.5 °F 33.8 °F 100% 29.74 in 4.0 mi WNW 16.1 mph 20.7 mph N/A Snow Light Snow
6:55 AM 33.8 °F 22.5 °F 33.8 °F 100% 29.75 in 7.0 mi WNW 19.6 mph 23.0 mph N/A Snow Light Snow
7:15 AM 33.8 °F 23.5 °F 33.8 °F 100% 29.76 in 5.0 mi NW 16.1 mph 24.2 mph N/A   Overcast
7:35 AM 33.8 °F 23.5 °F 33.8 °F 100% 29.77 in 2.0 mi NW 16.1 mph 25.3 mph N/A Snow Light Snow
7:55 AM 33.8 °F 23.9 °F 33.8 °F 100% 29.78 in 1.5 mi WNW 15.0 mph 23.0 mph N/A Snow Light Snow
8:15 AM 32.0 °F 20.5 °F 32.0 °F 100% 29.79 in 5.0 mi NW 18.4 mph 26.5 mph N/A   Overcast
8:35 AM 33.8 °F 23.2 °F 33.8 °F 100% 29.81 in 10.0 mi NW 17.3 mph 25.3 mph N/A   Overcast
8:55 AM 33.8 °F 22.2 °F 33.8 °F 100% 29.83 in 10.0 mi NW 20.7 mph 31.1 mph N/A   Overcast
9:15 AM 33.8 °F 22.2 °F 33.8 °F 100% 29.84 in 5.0 mi NW 20.7 mph 29.9 mph N/A Snow Light Snow
9:35 AM 33.8 °F 22.8 °F 33.8 °F 100% 29.86 in 4.0 mi NW 18.4 mph 24.2 mph N/A Snow Light Snow
9:55 AM 32.0 °F 20.1 °F 32.0 °F 100% 29.88 in 3.0 mi NW 19.6 mph 26.5 mph N/A Snow Light Snow
10:15 AM 32.0 °F 20.5 °F 32.0 °F 100% 29.90 in 3.0 mi NW 18.4 mph 25.3 mph N/A Snow Light Snow
10:35 AM 32.0 °F 20.1 °F 32.0 °F 100% 29.91 in 4.0 mi NW 19.6 mph 27.6 mph N/A Snow Light Snow
10:55 AM 32.0 °F 19.8 °F 32.0 °F 100% 29.92 in 2.5 mi NW 20.7 mph 27.6 mph N/A Snow Light Snow
11:15 AM 32.0 °F 20.1 °F 32.0 °F 100% 29.93 in 1.5 mi NW 19.6 mph 27.6 mph N/A Snow Light Snow
11:35 AM 33.8 °F 22.8 °F 33.8 °F 100% 29.94 in 1.2 mi NW 18.4 mph 27.6 mph N/A Snow Light Snow
11:55 AM 33.8 °F 22.8 °F 33.8 °F 100% 29.95 in 2.0 mi NW 18.4 mph 24.2 mph N/A Snow Light Snow
12:15 PM 33.8 °F 23.2 °F 33.8 °F 100% 29.96 in 5.0 mi NW 17.3 mph 32.2 mph N/A   Overcast
12:35 PM 33.8 °F 23.9 °F 33.8 °F 100% 29.98 in 5.0 mi NW 15.0 mph 23.0 mph N/A Snow Light Snow
12:55 PM 33.8 °F 24.3 °F 32.0 °F 93% 29.99 in 10.0 mi NW 13.8 mph 29.9 mph N/A   Overcast
1:15 PM 33.8 °F 23.5 °F 33.8 °F 100% 30.00 in 7.0 mi NW 16.1 mph 25.3 mph N/A   Overcast
1:35 PM 33.8 °F 23.2 °F 32.0 °F 93% 30.00 in 10.0 mi NW 17.3 mph 27.6 mph N/A   Overcast
1:55 PM 33.8 °F 22.5 °F 32.0 °F 93% 30.01 in 10.0 mi NW 19.6 mph 27.6 mph N/A   Overcast
2:15 PM 33.8 °F 21.6 °F 30.2 °F 87% 30.01 in 10.0 mi WNW 23.0 mph 32.2 mph N/A   Overcast
2:35 PM 33.8 °F 21.6 °F 30.2 °F 87% 30.02 in 10.0 mi NW 23.0 mph 33.4 mph N/A   Overcast
2:55 PM 33.8 °F 22.5 °F 30.2 °F 87% 30.02 in 10.0 mi NW 19.6 mph 31.1 mph N/A   Overcast
3:15 PM 33.8 °F 22.2 °F 30.2 °F 87% 30.02 in 10.0 mi NW 20.7 mph 27.6 mph N/A   Overcast
3:35 PM 33.8 °F 21.3 °F 28.4 °F 81% 30.02 in 10.0 mi NW 24.2 mph 32.2 mph N/A   Overcast
3:55 PM 33.8 °F 22.5 °F 28.4 °F 81% 30.03 in 10.0 mi NW 19.6 mph 29.9 mph N/A   Overcast
4:15 PM 33.8 °F 23.5 °F 28.4 °F 81% 30.03 in 10.0 mi WNW 16.1 mph 26.5 mph N/A   Overcast
4:35 PM 33.8 °F 23.9 °F 28.4 °F 81% 30.04 in 10.0 mi NW 15.0 mph 25.3 mph N/A   Overcast
4:55 PM 33.8 °F 23.9 °F 28.4 °F 81% 30.04 in 10.0 mi NW 15.0 mph 24.2 mph N/A   Overcast
5:15 PM 33.8 °F 23.5 °F 28.4 °F 81% 30.04 in 10.0 mi NW 16.1 mph 23.0 mph N/A   Overcast
5:35 PM 33.8 °F 23.2 °F 28.4 °F 81% 30.05 in 10.0 mi NW 17.3 mph 20.7 mph N/A   Overcast
5:55 PM 33.8 °F 23.9 °F 28.4 °F 81% 30.05 in 10.0 mi NW 15.0 mph 20.7 mph N/A   Overcast
6:15 PM 33.8 °F 23.9 °F 28.4 °F 81% 30.05 in 10.0 mi NW 15.0 mph 20.7 mph N/A   Overcast
6:35 PM 33.8 °F 25.3 °F 28.4 °F 81% 30.06 in 10.0 mi NW 11.5 mph 18.4 mph N/A   Overcast
6:55 PM 33.8 °F 23.5 °F 26.6 °F 75% 30.08 in 10.0 mi NW 16.1 mph 20.7 mph N/A   Overcast
7:15 PM 32.0 °F 22.1 °F 26.6 °F 80% 30.09 in 10.0 mi NW 13.8 mph 19.6 mph N/A   Overcast
7:35 PM 32.0 °F 22.1 °F 26.6 °F 80% 30.11 in 10.0 mi NW 13.8 mph 20.7 mph N/A   Mostly Cloudy
7:55 PM 32.0 °F 23.0 °F 23.0 °F 69% 30.11 in 10.0 mi NW 11.5 mph 21.9 mph N/A   Scattered Clouds
8:15 PM 32.0 °F 24.2 °F 23.0 °F 69% 30.13 in 10.0 mi WNW 9.2 mph - N/A   Clear
8:55 PM 32.0 °F 24.2 °F 23.0 °F 69% 30.13 in 10.0 mi WNW 9.2 mph - N/A   Clear
9:15 PM 32.0 °F 27.5 °F 23.0 °F 69% 30.14 in 10.0 mi WNW 4.6 mph - N/A   Clear
9:35 PM 32.0 °F 26.4 °F 23.0 °F 69% 30.15 in 10.0 mi West 5.8 mph - N/A   Clear
9:55 PM 32.0 °F 24.8 °F 24.8 °F 75% 30.16 in 10.0 mi West 8.1 mph - N/A   Mostly Cloudy
10:15 PM 32.0 °F 24.8 °F 24.8 °F 75% 30.16 in 10.0 mi West 8.1 mph - N/A   Overcast
10:35 PM 32.0 °F 25.6 °F 24.8 °F 75% 30.16 in 10.0 mi West 6.9 mph - N/A   Scattered Clouds
10:55 PM 32.0 °F 24.8 °F 24.8 °F 75% 30.16 in 10.0 mi West 8.1 mph - N/A   Clear
11:15 PM 32.0 °F 25.6 °F 24.8 °F 75% 30.16 in 10.0 mi West 6.9 mph - N/A   Clear
11:35 PM 32.0 °F 27.5 °F 24.8 °F 75% 30.15 in 10.0 mi West 4.6 mph - N/A   Clear
11:55 PM 32.0 °F 26.4 °F 24.8 °F 75% 30.15 in 10.0 mi West 5.8 mph - N/A   Clear